INFORMAÇÕES DO AERODROMO
Icao Aerodromo KMEM Nome do Aerodromo Memphis International Airport Cidade Memphis
Código GPS KMEM Elevação Média 341 ft Tipo de Aerodromo Aeroporto Grande Porte

INFORMAÇÃO DE PISTA
Pista 09 Comprimento da Pista 8946 ft Largura da Pista 150 ft
Elevação da Pista 253 ft Distância de Area de Escape da Pista 0 ft Orientação da Pista 92
Pista 27 Comprimento da Pista 8946 ft Largura da Pista 150 ft
Elevação da Pista 292 ft Distância de Area de Escape da Pista 0 ft Orientação da Pista 272
Pista 18C Comprimento da Pista 11120 ft Largura da Pista 150 ft
Elevação da Pista 271 ft Distância de Area de Escape da Pista 0 ft Orientação da Pista 179
Pista 36C Comprimento da Pista 11120 ft Largura da Pista 150 ft
Elevação da Pista 341 ft Distância de Area de Escape da Pista 0 ft Orientação da Pista 359
Pista 18L Comprimento da Pista 9000 ft Largura da Pista 150 ft
Elevação da Pista 278 ft Distância de Area de Escape da Pista 0 ft Orientação da Pista 179
Pista 36R Comprimento da Pista 9000 ft Largura da Pista 150 ft
Elevação da Pista 335 ft Distância de Area de Escape da Pista 0 ft Orientação da Pista 359
Pista 18R Comprimento da Pista 9320 ft Largura da Pista 150 ft
Elevação da Pista 288 ft Distância de Area de Escape da Pista 0 ft Orientação da Pista 179
Pista 36L Comprimento da Pista 9320 ft Largura da Pista 150 ft
Elevação da Pista 321 ft Distância de Area de Escape da Pista 0 ft Orientação da Pista 359

FREQUÊNCIAS DO AERODROMO
Tipo APP Nome APP Frequência 33.83 MHZ
Tipo APP Nome APP Frequência 119.1 MHZ
Tipo ATIS Nome ATIS Frequência 127.75 MHZ
Tipo CLD Nome CLNC DEL Frequência 125.2 MHZ
Tipo DEP Nome DEP Frequência 124.15 MHZ
Tipo GND Nome GND Frequência 121.65 MHZ
Tipo POST Nome ANG COMD P Frequência 138.95 MHZ
Tipo RDO Nome JACKSON RD Frequência 122.2 MHZ
Tipo TWR Nome TWR Frequência 118.3 MHZ
Tipo UNIC Nome UNICOM Frequência 122.95 MHZ

INFORMAÇÕES DE NAVEGAÇÃO PRÓXIMO AO AERODROMO
Tipo NDB Nome Elvis Frequência 287 KHZ
Tipo VORTAC Nome Memphis Frequência 117500 KHZ

Informações de Meteorologia(METAR atual)
METAR DE KMEM
ADDS - METARS form results

(1925 UTC 14 November 2018)
Data provider http://aviationweather.gov/metar/data/
 
METAR text: KMEM 141920Z 34005KT 1SM R36L/5500VP6000FT GS BR BKN007 BKN014 OVC022 M01/M02 A3031 RMK AO2 SFC VIS 1 1/2 RAE05FZDZB07E08SNE05GSB05E07B08 GS LGT P0001 T10111022 $
Conditions at: KMEM (MEMPHIS , TN, US) observed 1920 UTC 14 November 2018
Temperature: -1.1°C (30°F)
Dewpoint: -2.2°C (28°F) [RH = 92%]
Pressure (altimeter): 30.31 inches Hg (1026.5 mb)
Winds: from the NNW (340 degrees) at 6 MPH (5 knots; 2.6 m/s)
Visibility: 1.00 miles (1.61 km)
Ceiling: 700 feet AGL
Clouds: broken clouds at 700 feet AGL
broken clouds at 1400 feet AGL
overcast cloud deck at 2200 feet AGL
Weather: GS BR  (small hail or graupel, mist)
SOME DATA ABOVE MAY BE INACCURATE!!!
"$" is an indication the sensor requires maintenance

METAR text: KMEM 141909Z 35006KT 2SM GS BR SCT007 BKN013 OVC023 M01/M02 A3031 RMK AO2 RAE05FZDZB07E08SNE05GSB05E07B08 GS LGT P0000 T10111022 $
Conditions at: KMEM (MEMPHIS , TN, US) observed 1909 UTC 14 November 2018
Temperature: -1.1°C (30°F)
Dewpoint: -2.2°C (28°F) [RH = 92%]
Pressure (altimeter): 30.31 inches Hg (1026.5 mb)
Winds: from the N (350 degrees) at 7 MPH (6 knots; 3.1 m/s)
Visibility: 2.00 miles (3.22 km)
Ceiling: 1300 feet AGL
Clouds: scattered clouds at 700 feet AGL
broken clouds at 1300 feet AGL
overcast cloud deck at 2300 feet AGL
Weather: GS BR  (small hail or graupel, mist)
SOME DATA ABOVE MAY BE INACCURATE!!!
"$" is an indication the sensor requires maintenance

METAR text: KMEM 141907Z 35006KT 2SM FZDZ BR SCT007 BKN013 OVC023 M01/M02 A3031 RMK AO2 RAE05FZDZB07SNE05GSB05E07 P0000 T10111022 $
Conditions at: KMEM (MEMPHIS , TN, US) observed 1907 UTC 14 November 2018
Temperature: -1.1°C (30°F)
Dewpoint: -2.2°C (28°F) [RH = 92%]
Pressure (altimeter): 30.31 inches Hg (1026.5 mb)
Winds: from the N (350 degrees) at 7 MPH (6 knots; 3.1 m/s)
Visibility: 2.00 miles (3.22 km)
Ceiling: 1300 feet AGL
Clouds: scattered clouds at 700 feet AGL
broken clouds at 1300 feet AGL
overcast cloud deck at 2300 feet AGL
Weather: FZDZ BR  (freezing drizzle, mist)
SOME DATA ABOVE MAY BE INACCURATE!!!
"$" is an indication the sensor requires maintenance

METAR text: KMEM 141857Z 35006KT 2SM -SNRA BR FEW007 BKN016 OVC024 M01/M02 A3031 RMK AO2 P0000 T10111022 $
Conditions at: KMEM (MEMPHIS , TN, US) observed 1857 UTC 14 November 2018
Temperature: -1.1°C (30°F)
Dewpoint: -2.2°C (28°F) [RH = 92%]
Pressure (altimeter): 30.31 inches Hg (1026.5 mb)
Winds: from the N (350 degrees) at 7 MPH (6 knots; 3.1 m/s)
Visibility: 2.00 miles (3.22 km)
Ceiling: 1600 feet AGL
Clouds: few clouds at 700 feet AGL
broken clouds at 1600 feet AGL
overcast cloud deck at 2400 feet AGL
Weather: -SN -RA BR  (light snow, light rain, mist)
SOME DATA ABOVE MAY BE INACCURATE!!!
"$" is an indication the sensor requires maintenance

METAR text: KMEM 141854Z 35006KT 1 3/4SM -SNRA BR SCT011 BKN017 OVC024 M01/M02 A3032 RMK AO2 TWR VIS 2 RAB52 SLP269 P0001 T10111022 $
Conditions at: KMEM (MEMPHIS , TN, US) observed 1854 UTC 14 November 2018
Temperature: -1.1°C (30°F)
Dewpoint: -2.2°C (28°F) [RH = 92%]
Pressure (altimeter): 30.32 inches Hg (1026.8 mb)
[Sea-level pressure: 1026.9 mb]
Winds: from the N (350 degrees) at 7 MPH (6 knots; 3.1 m/s)
Visibility: 1.75 miles (2.82 km)
Ceiling: 1700 feet AGL
Clouds: scattered clouds at 1100 feet AGL
broken clouds at 1700 feet AGL
overcast cloud deck at 2400 feet AGL
Weather: -SN -RA BR  (light snow, light rain, mist)
SOME DATA ABOVE MAY BE INACCURATE!!!
"$" is an indication the sensor requires maintenance

METAR text: KMEM 141851Z 34007KT 1 3/4SM -SN BR SCT011 SCT017 OVC024 M01/M03 A3032 RMK AO2 TWR VIS 2 P0001 $
Conditions at: KMEM (MEMPHIS , TN, US) observed 1851 UTC 14 November 2018
Temperature: -1.0°C (30°F)
Dewpoint: -3.0°C (27°F) [RH = 86%]
Pressure (altimeter): 30.32 inches Hg (1026.8 mb)
Winds: from the NNW (340 degrees) at 8 MPH (7 knots; 3.6 m/s)
Visibility: 1.75 miles (2.82 km)
Ceiling: 2400 feet AGL
Clouds: scattered clouds at 1100 feet AGL
scattered clouds at 1700 feet AGL
overcast cloud deck at 2400 feet AGL
Weather: -SN BR  (light snow, mist)
SOME DATA ABOVE MAY BE INACCURATE!!!
"$" is an indication the sensor requires maintenance

METAR text: KMEM 141840Z 34007KT 2SM -SN BR BKN012 OVC024 M01/M03 A3032 RMK AO2 SFC VIS 2 1/2 P0001 T10111028 $
Conditions at: KMEM (MEMPHIS , TN, US) observed 1840 UTC 14 November 2018
Temperature: -1.1°C (30°F)
Dewpoint: -2.8°C (27°F) [RH = 88%]
Pressure (altimeter): 30.32 inches Hg (1026.8 mb)
Winds: from the NNW (340 degrees) at 8 MPH (7 knots; 3.6 m/s)
Visibility: 2.00 miles (3.22 km)
Ceiling: 1200 feet AGL
Clouds: broken clouds at 1200 feet AGL
overcast cloud deck at 2400 feet AGL
Weather: -SN BR  (light snow, mist)
SOME DATA ABOVE MAY BE INACCURATE!!!
"$" is an indication the sensor requires maintenance

Forecast for: KMEM (MEMPHIS , TN, US)
Text: KMEM 141820Z 1418/1524 01009KT 4SM -FZDZSN BR OVC018
Forecast period: 1800 to 2100 UTC 14 November 2018
Forecast type: FROM: standard forecast or significant change
Winds: from the N (10 degrees) at 10 MPH (9 knots; 4.6 m/s)
Visibility: 4 miles (6 km)
Ceiling: 1800 feet AGL
Clouds: overcast cloud deck at 1800 feet AGL
Weather: -FZDZ SN BR  (light freezing drizzle, moderate snow, mist)
Text: FM142100 34008KT 3SM -SN BR OVC010
Forecast period: 2100 UTC 14 November 2018 to 0400 UTC 15 November 2018
Forecast type: FROM: standard forecast or significant change
Winds: from the NNW (340 degrees) at 9 MPH (8 knots; 4.1 m/s)
Visibility: 3 miles (5 km)
Ceiling: 1000 feet AGL
Clouds: overcast cloud deck at 1000 feet AGL
Weather: -SN BR  (light snow, mist)
Text: FM150400 29006KT P6SM BKN010
Forecast period: 0400 to 1500 UTC 15 November 2018
Forecast type: FROM: standard forecast or significant change
Winds: from the WNW (290 degrees) at 7 MPH (6 knots; 3.1 m/s)
Visibility: 6 or more miles 10+ km)
Ceiling: 1000 feet AGL
Clouds: broken clouds at 1000 feet AGL
Weather: no significant weather forecast for this period
Text: FM151500 27008KT P6SM FEW010 BKN030
Forecast period: 1500 UTC 15 November 2018 to 0000 UTC 16 November 2018
Forecast type: FROM: standard forecast or significant change
Winds: from the W (270 degrees) at 9 MPH (8 knots; 4.1 m/s)
Visibility: 6 or more miles 10+ km)
Ceiling: 3000 feet AGL
Clouds: few clouds at 1000 feet AGL
broken clouds at 3000 feet AGL
Weather: no significant weather forecast for this period

MAPA DO AERODROMO


Desenvolvido por Virtual Airlines Manager




Modificado por Servidor Brasil Amigos